Time;durP1;ratioP1;P1;durP2;ratioP2;P2;SDS_P1;SDS_P2;PMS_P1;PMS_P2;Temp;Humidity;BMP_temperature;BMP_pressure;BME280_temperature;BME280_humidity;BME280_pressure;Samples;Min_cycle;Max_cycle;Signal;HPM_P1;HPM_P2
2023/02/19 00:00:56;;;;;;;;;;;;;;;;;;5074189;28;1646;-47
2023/02/19 00:03:23;;;;;;;;;;;;;;;;;;5074161;28;2387;-46
2023/02/19 00:05:51;;;;;;;;;;;;;;;;;;5074090;28;1915;-45
2023/02/19 00:08:18;;;;;;;;;;;;;;;;;;5074109;28;1712;-41
2023/02/19 00:10:45;;;;;;;;;;;;;;;;;;5073775;28;1877;-47
2023/02/19 00:13:14;;;;;;;;;;;;;;;;;;5084614;28;1983;-44
2023/02/19 00:15:41;;;;;;;;;;;;;;;;;;5094055;28;1714;-45
2023/02/19 00:18:08;;;;;;;;;;;;;;;;;;5094189;28;1815;-45
2023/02/19 00:20:35;;;;;;;;;;;;;;;;;;5094292;28;1744;-41
2023/02/19 00:23:02;;;;;;;;;;;;;;;;;;5094180;28;1701;-45
2023/02/19 00:25:30;;;;;;;;;;;;;;;;;;5094018;28;2054;-44
2023/02/19 00:27:57;;;;;;;;;;;;;;;;;;5093969;28;1882;-46
2023/02/19 00:30:25;;;;;;;;;;;;;;;;;;5075903;28;2016;-46
2023/02/19 00:32:52;;;;;;;;;;;;;;;;;;5093912;28;1908;-42
2023/02/19 00:35:19;;;;;;;;;;;;;;;;;;5075822;28;1977;-47
2023/02/19 00:37:46;;;;;;;;;;;;;;;;;;5093573;28;1497;-50
2023/02/19 00:40:14;;;;;;;;;;;;;;;;;;5093837;28;2105;-45
2023/02/19 00:42:41;;;;;;;;;;;;;;;;;;5093722;28;1672;-41
2023/02/19 00:45:08;;;;;;;;;;;;;;;;;;5093773;28;1711;-44
2023/02/19 00:47:35;;;;;;;;;;;;;;;;;;5075498;28;2510;-41
2023/02/19 00:50:02;;;;;;;;;;;;;;;;;;5092920;28;1845;-45
2023/02/19 00:52:29;;;;;;;;;;;;;;;;;;5093350;28;1842;-45
2023/02/19 00:54:56;;;;;;;;;;;;;;;;;;5075148;28;1982;-46
2023/02/19 00:57:24;;;;;;;;;;;;;;;;;;5093609;28;1986;-46
2023/02/19 00:59:51;;;;;;;;;;;;;;;;;;5093278;28;2123;-45
2023/02/19 01:02:18;;;;;;;;;;;;;;;;;;5093220;28;2067;-47
2023/02/19 01:04:46;;;;;;;;;;;;;;;;;;5088915;28;1951;-45
2023/02/19 01:07:13;;;;;;;;;;;;;;;;;;5073049;28;1995;-48
2023/02/19 01:09:40;;;;;;;;;;;;;;;;;;5072965;28;1672;-45
2023/02/19 01:12:07;;;;;;;;;;;;;;;;;;5072798;28;2095;-42
2023/02/19 01:14:35;;;;;;;;;;;;;;;;;;5054993;28;1994;-43
2023/02/19 01:17:02;;;;;;;;;;;;;;;;;;5073074;28;1680;-43
2023/02/19 01:19:30;;;;;;;;;;;;;;;;;;5072670;28;1690;-41
2023/02/19 01:21:57;;;;;;;;;;;;;;;;;;5072800;28;1808;-48
2023/02/19 01:24:24;;;;;;;;;;;;;;;;;;5054717;28;2197;-45
2023/02/19 01:26:51;;;;;;;;;;;;;;;;;;5072606;28;1924;-45
2023/02/19 01:29:18;;;;;;;;;;;;;;;;;;5072649;28;1470;-46
2023/02/19 01:31:45;;;;;;;;;;;;;;;;;;5054318;28;1915;-43
2023/02/19 01:34:13;;;;;;;;;;;;;;;;;;5072148;28;1964;-47
2023/02/19 01:36:40;;;;;;;;;;;;;;;;;;5054336;28;2049;-43
2023/02/19 01:39:09;;;;;;;;;;;;;;;;;;5054415;28;1998;-43
2023/02/19 01:41:38;;;;;;;;;;;;;;;;;;5072439;28;1728;-39
2023/02/19 01:44:07;;;;;;;;;;;;;;;;;;5071951;28;2113;-40
2023/02/19 01:46:36;;;;;;;;;;;;;;;;;;5072232;28;1908;-40
2023/02/19 01:49:07;;;;;;;;;;;;;;;;;;5072289;28;1660;-40
2023/02/19 01:51:35;;;;;;;;;;;;;;;;;;5072297;28;1921;-44
2023/02/19 01:54:04;;;;;;;;;;;;;;;;;;5072169;28;1948;-41
2023/02/19 01:56:33;;;;;;;;;;;;;;;;;;5072151;28;1670;-41
2023/02/19 01:59:01;;;;;;;;;;;;;;;;;;5071866;28;1800;-45
2023/02/19 02:01:28;;;;;;;;;;;;;;;;;;5071898;28;1839;-46
2023/02/19 02:03:56;;;;;;;;;;;;;;;;;;5054070;28;2259;-44
2023/02/19 02:06:24;;;;;;;;;;;;;;;;;;5071332;28;2240;-46
2023/02/19 02:11:41;;;;;;;;;;;;;;;;;;5071667;28;2053;-46
2023/02/19 02:14:08;;;;;;;;;;;;;;;;;;5087386;28;1850;-44
2023/02/19 02:16:46;;;;;;;;;;;;;;;;;;5072068;28;1920;-48
2023/02/19 02:19:29;;;;;;;;;;;;;;;;;;5071642;28;2161;-42
2023/02/19 02:22:07;;;;;;;;;;;;;;;;;;5087148;28;1821;-43
2023/02/19 02:24:51;;;;;;;;;;;;;;;;;;5071701;28;2020;-46
2023/02/19 02:27:27;;;;;;;;;;;;;;;;;;5087063;28;1972;-47
2023/02/19 02:30:28;;;;;;;;;;;;;;;;;;5087064;28;2137;-41
2023/02/19 02:33:08;;;;;;;;;;;;;;;;;;5042295;28;1941;-44
2023/02/19 02:35:43;;;;;;;;;;;;;;;;;;5053325;28;1794;-45
2023/02/19 02:38:11;;;;;;;;;;;;;;;;;;5084566;28;2033;-48
2023/02/19 02:40:41;;;;;;;;;;;;;;;;;;5051595;28;1683;-44
2023/02/19 02:43:10;;;;;;;;;;;;;;;;;;5053268;28;2102;-43
2023/02/19 02:45:38;;;;;;;;;;;;;;;;;;5071419;28;1921;-43
2023/02/19 02:48:15;;;;;;;;;;;;;;;;;;5071078;28;2079;-42
2023/02/19 02:50:51;;;;;;;;;;;;;;;;;;5052964;28;1586;-43
2023/02/19 02:56:25;;;;;;;;;;;;;;;;;;5053206;28;1917;-44
2023/02/19 02:58:54;;;;;;;;;;;;;;;;;;5052944;28;1834;-42
2023/02/19 03:04:12;;;;;;;;;;;;;;;;;;5052473;28;1827;-44
2023/02/19 03:06:41;;;;;;;;;;;;;;;;;;5069635;28;1902;-43
2023/02/19 03:09:10;;;;;;;;;;;;;;;;;;5071054;28;1895;-45
2023/02/19 03:20:38;;;;;;;;;;;;;;;;;;5075147;28;2148;-41
2023/02/19 03:23:08;;;;;;;;;;;;;;;;;;5074956;28;1510;-39
2023/02/19 03:31:31;;;;;;;;;;;;;;;;;;5056753;28;2153;-44
2023/02/19 03:34:02;;;;;;;;;;;;;;;;;;5056757;28;1756;-43
2023/02/19 03:36:35;;;;;;;;;;;;;;;;;;5074814;28;2218;-42
2023/02/19 03:39:08;;;;;;;;;;;;;;;;;;5056626;28;2126;-39
2023/02/19 03:41:50;;;;;;;;;;;;;;;;;;5056557;28;1775;-41
2023/02/19 03:44:24;;;;;;;;;;;;;;;;;;5056363;28;1834;-42
2023/02/19 03:47:02;;;;;;;;;;;;;;;;;;5056292;28;1984;-40
2023/02/19 03:49:43;;;;;;;;;;;;;;;;;;5056618;28;1687;-41
2023/02/19 03:52:15;;;;;;;;;;;;;;;;;;5074502;28;2132;-40
2023/02/19 03:54:43;;;;;;;;;;;;;;;;;;5074259;28;1668;-43
2023/02/19 03:57:17;;;;;;;;;;;;;;;;;;5056183;28;2338;-41
2023/02/19 03:59:49;;;;;;;;;;;;;;;;;;5056310;28;1954;-41
2023/02/19 04:02:40;;;;;;;;;;;;;;;;;;5056238;28;1939;-46
2023/02/19 04:05:28;;;;;;;;;;;;;;;;;;5068021;28;1891;-42
2023/02/19 04:07:57;;;;;;;;;;;;;;;;;;5056124;28;2044;-40
2023/02/19 04:10:31;;;;;;;;;;;;;;;;;;5055904;28;1966;-43
2023/02/19 04:13:01;;;;;;;;;;;;;;;;;;5055931;28;1388;-39
2023/02/19 04:15:30;;;;;;;;;;;;;;;;;;5073866;28;1850;-44
2023/02/19 04:18:00;;;;;;;;;;;;;;;;;;5074175;28;2040;-43
2023/02/19 04:20:28;;;;;;;;;;;;;;;;;;5073817;28;2039;-45
2023/02/19 04:22:56;;;;;;;;;;;;;;;;;;5073124;28;1963;-43
2023/02/19 04:25:25;;;;;;;;;;;;;;;;;;5073190;28;2051;-39
2023/02/19 04:27:52;;;;;;;;;;;;;;;;;;5073750;28;1980;-43
2023/02/19 04:30:20;;;;;;;;;;;;;;;;;;5073864;28;2006;-43
2023/02/19 04:32:47;;;;;;;;;;;;;;;;;;5073612;28;2261;-45
2023/02/19 04:35:14;;;;;;;;;;;;;;;;;;5073550;28;1893;-38
2023/02/19 04:37:42;;;;;;;;;;;;;;;;;;5073477;28;1684;-45
2023/02/19 04:40:09;;;;;;;;;;;;;;;;;;5073640;28;2033;-43
2023/02/19 04:42:36;;;;;;;;;;;;;;;;;;5073620;28;1888;-42
2023/02/19 04:45:03;;;;;;;;;;;;;;;;;;5073087;28;1983;-41
2023/02/19 04:47:31;;;;;;;;;;;;;;;;;;5073550;28;1906;-44
2023/02/19 04:49:58;;;;;;;;;;;;;;;;;;5073369;28;1687;-42
2023/02/19 04:52:26;;;;;;;;;;;;;;;;;;5073288;28;1976;-44
2023/02/19 04:54:53;;;;;;;;;;;;;;;;;;5073201;28;1935;-45
2023/02/19 04:57:20;;;;;;;;;;;;;;;;;;5073403;28;2285;-44
2023/02/19 04:59:47;;;;;;;;;;;;;;;;;;5073345;28;1765;-39
2023/02/19 05:02:14;;;;;;;;;;;;;;;;;;5073024;28;1855;-46
2023/02/19 05:04:41;;;;;;;;;;;;;;;;;;5076444;28;2233;-44
2023/02/19 05:07:09;;;;;;;;;;;;;;;;;;5093273;28;1985;-41
2023/02/19 05:09:36;;;;;;;;;;;;;;;;;;5093312;28;1702;-43
2023/02/19 05:12:03;;;;;;;;;;;;;;;;;;5093558;28;1858;-43
2023/02/19 05:14:30;;;;;;;;;;;;;;;;;;5093178;28;2008;-43
2023/02/19 05:16:57;;;;;;;;;;;;;;;;;;5092639;28;1840;-42
2023/02/19 05:19:24;;;;;;;;;;;;;;;;;;5093194;28;1602;-40
2023/02/19 05:21:52;;;;;;;;;;;;;;;;;;5092941;28;1944;-47
2023/02/19 05:24:19;;;;;;;;;;;;;;;;;;5092926;28;1617;-42
2023/02/19 05:26:47;;;;;;;;;;;;;;;;;;5093128;28;1959;-41
2023/02/19 05:29:14;;;;;;;;;;;;;;;;;;5092840;28;2123;-41
2023/02/19 05:31:41;;;;;;;;;;;;;;;;;;5092736;28;1928;-40
2023/02/19 05:34:09;;;;;;;;;;;;;;;;;;5092250;28;1849;-40
2023/02/19 05:36:36;;;;;;;;;;;;;;;;;;5092699;28;2058;-41
2023/02/19 05:39:05;;;;;;;;;;;;;;;;;;5092758;28;1680;-45
2023/02/19 05:41:32;;;;;;;;;;;;;;;;;;5092548;28;1656;-41
2023/02/19 05:43:59;;;;;;;;;;;;;;;;;;5093048;28;2254;-42
2023/02/19 05:46:28;;;;;;;;;;;;;;;;;;5092430;28;2264;-46
2023/02/19 05:48:57;;;;;;;;;;;;;;;;;;5092398;28;1966;-41
2023/02/19 05:51:25;;;;;;;;;;;;;;;;;;5092395;28;1480;-43
2023/02/19 05:53:53;;;;;;;;;;;;;;;;;;5092346;28;2096;-43
2023/02/19 05:56:26;;;;;;;;;;;;;;;;;;5092303;28;1629;-43
2023/02/19 05:58:53;;;;;;;;;;;;;;;;;;5092210;28;1940;-44
2023/02/19 06:01:22;;;;;;;;;;;;;;;;;;5092300;28;2176;-47
2023/02/19 06:03:49;;;;;;;;;;;;;;;;;;5092244;28;1981;-40
2023/02/19 06:06:19;;;;;;;;;;;;;;;;;;5075246;28;2219;-43
2023/02/19 06:08:48;;;;;;;;;;;;;;;;;;5071743;28;1999;-43
2023/02/19 06:11:15;;;;;;;;;;;;;;;;;;5071381;28;1914;-41
2023/02/19 06:13:43;;;;;;;;;;;;;;;;;;5071470;28;2057;-43
2023/02/19 06:16:13;;;;;;;;;;;;;;;;;;5071519;28;1945;-45
2023/02/19 06:18:40;;;;;;;;;;;;;;;;;;5071715;28;1970;-41
2023/02/19 06:21:09;;;;;;;;;;;;;;;;;;5071639;28;1816;-40
2023/02/19 06:23:37;;;;;;;;;;;;;;;;;;5071656;28;1844;-41
2023/02/19 06:26:09;;;;;;;;;;;;;;;;;;5071875;28;2151;-44
2023/02/19 06:28:39;;;;;;;;;;;;;;;;;;5071761;28;2033;-45
2023/02/19 06:31:07;;;;;;;;;;;;;;;;;;5071723;28;1972;-43
2023/02/19 06:33:35;;;;;;;;;;;;;;;;;;5071524;28;2020;-45
2023/02/19 06:36:03;;;;;;;;;;;;;;;;;;5071097;28;2105;-43
2023/02/19 06:38:30;;;;;;;;;;;;;;;;;;5088880;28;1795;-39
2023/02/19 06:41:01;;;;;;;;;;;;;;;;;;5091521;28;1819;-46
2023/02/19 06:43:29;;;;;;;;;;;;;;;;;;5091582;28;2264;-44
2023/02/19 06:45:57;;;;;;;;;;;;;;;;;;5091327;28;1999;-40
2023/02/19 06:48:25;;;;;;;;;;;;;;;;;;5091012;28;1978;-41
2023/02/19 06:50:53;;;;;;;;;;;;;;;;;;5091347;28;1408;-45
2023/02/19 06:53:20;;;;;;;;;;;;;;;;;;5091243;28;2149;-43
2023/02/19 06:56:05;;;;;;;;;;;;;;;;;;5091309;28;1888;-41
2023/02/19 06:58:34;;;;;;;;;;;;;;;;;;5091309;28;1714;-42
2023/02/19 07:01:01;;;;;;;;;;;;;;;;;;5091223;28;1716;-43
2023/02/19 07:03:28;;;;;;;;;;;;;;;;;;5091091;28;1794;-43
2023/02/19 07:05:58;;;;;;;;;;;;;;;;;;5077362;28;1939;-43
2023/02/19 07:08:25;;;;;;;;;;;;;;;;;;5070902;28;1977;-43
2023/02/19 07:10:56;;;;;;;;;;;;;;;;;;5070987;28;2284;-42
2023/02/19 07:13:23;;;;;;;;;;;;;;;;;;5071065;28;1633;-42
2023/02/19 07:15:50;;;;;;;;;;;;;;;;;;5070670;28;2067;-40
2023/02/19 07:18:18;;;;;;;;;;;;;;;;;;5070801;28;1836;-41
2023/02/19 07:20:45;;;;;;;;;;;;;;;;;;5070848;28;2039;-42
2023/02/19 07:23:12;;;;;;;;;;;;;;;;;;5070874;28;1946;-42
2023/02/19 07:25:39;;;;;;;;;;;;;;;;;;5070948;28;1705;-41
2023/02/19 07:28:06;;;;;;;;;;;;;;;;;;5070741;28;2026;-44
2023/02/19 07:30:34;;;;;;;;;;;;;;;;;;5071560;28;1961;-40
2023/02/19 07:33:01;;;;;;;;;;;;;;;;;;5070697;28;2390;-41
2023/02/19 07:35:29;;;;;;;;;;;;;;;;;;5070475;28;1691;-40
2023/02/19 07:37:56;;;;;;;;;;;;;;;;;;5070760;28;1481;-42
2023/02/19 07:40:23;;;;;;;;;;;;;;;;;;5071193;28;2012;-45
2023/02/19 07:42:50;;;;;;;;;;;;;;;;;;5070608;28;1908;-43
2023/02/19 07:45:19;;;;;;;;;;;;;;;;;;5070702;28;1851;-43
2023/02/19 07:47:46;;;;;;;;;;;;;;;;;;5070726;28;2181;-44
2023/02/19 07:50:14;;;;;;;;;;;;;;;;;;5070692;28;2213;-40
2023/02/19 07:52:41;;;;;;;;;;;;;;;;;;5070604;28;2342;-42
2023/02/19 07:55:08;;;;;;;;;;;;;;;;;;5070585;28;1920;-39
2023/02/19 07:57:35;;;;;;;;;;;;;;;;;;5065806;28;9738;-42
2023/02/19 08:00:03;;;;;;;;;;;;;;;;;;5074312;28;1255;-45
2023/02/19 08:05:24;;;;;;;;;;;;;;;;;;5083675;28;2134;-41
2023/02/19 08:07:51;;;;;;;;;;;;;;;;;;5094200;28;1963;-45
2023/02/19 08:13:21;;;;;;;;;;;;;;;;;;5087394;28;2004;-42
2023/02/19 08:15:52;;;;;;;;;;;;;;;;;;5073842;28;1982;-41
2023/02/19 08:18:24;;;;;;;;;;;;;;;;;;5073570;28;1854;-40
2023/02/19 08:20:53;;;;;;;;;;;;;;;;;;5073913;28;1683;-45
2023/02/19 08:23:20;;;;;;;;;;;;;;;;;;5073944;28;1953;-42
2023/02/19 08:25:47;;;;;;;;;;;;;;;;;;5073906;28;1908;-42
2023/02/19 08:28:14;;;;;;;;;;;;;;;;;;5073750;28;1982;-40
2023/02/19 08:30:45;;;;;;;;;;;;;;;;;;5073647;28;1616;-45
2023/02/19 08:33:14;;;;;;;;;;;;;;;;;;5073929;28;1994;-41
2023/02/19 08:35:42;;;;;;;;;;;;;;;;;;5073489;28;1931;-43
2023/02/19 08:38:10;;;;;;;;;;;;;;;;;;5073646;28;1728;-41
2023/02/19 08:40:37;;;;;;;;;;;;;;;;;;5073531;28;1775;-40
2023/02/19 08:43:06;;;;;;;;;;;;;;;;;;5073808;28;2086;-42
2023/02/19 08:45:33;;;;;;;;;;;;;;;;;;5073591;28;1972;-42
2023/02/19 08:48:02;;;;;;;;;;;;;;;;;;5073380;28;1901;-40
2023/02/19 08:50:29;;;;;;;;;;;;;;;;;;5073418;28;1994;-40
2023/02/19 08:53:00;;;;;;;;;;;;;;;;;;5073211;28;1938;-40
2023/02/19 08:55:27;;;;;;;;;;;;;;;;;;5073309;28;1977;-41
2023/02/19 08:57:54;;;;;;;;;;;;;;;;;;5072983;28;2002;-41
2023/02/19 09:00:21;;;;;;;;;;;;;;;;;;5073216;28;2027;-42
2023/02/19 09:02:49;;;;;;;;;;;;;;;;;;5073034;28;2184;-40
2023/02/19 09:05:16;;;;;;;;;;;;;;;;;;5081332;28;1387;-42
2023/02/19 09:07:43;;;;;;;;;;;;;;;;;;5093074;28;2102;-41
2023/02/19 09:10:11;;;;;;;;;;;;;;;;;;5092556;28;1900;-41
2023/02/19 09:12:39;;;;;;;;;;;;;;;;;;5093102;28;2156;-40
2023/02/19 09:15:07;;;;;;;;;;;;;;;;;;5093343;28;2010;-39
2023/02/19 09:17:34;;;;;;;;;;;;;;;;;;5093319;28;1560;-41
2023/02/19 09:20:01;;;;;;;;;;;;;;;;;;5092872;28;1985;-41
2023/02/19 09:22:28;;;;;;;;;;;;;;;;;;5092881;28;1986;-40
2023/02/19 09:24:55;;;;;;;;;;;;;;;;;;5092615;28;2006;-41
2023/02/19 09:27:23;;;;;;;;;;;;;;;;;;5092997;28;1995;-42
2023/02/19 09:29:50;;;;;;;;;;;;;;;;;;5092852;28;1911;-45
2023/02/19 09:32:17;;;;;;;;;;;;;;;;;;5092752;28;2122;-44
2023/02/19 09:34:45;;;;;;;;;;;;;;;;;;5074451;28;2166;-46
2023/02/19 09:37:12;;;;;;;;;;;;;;;;;;5092718;28;2163;-41
2023/02/19 09:39:39;;;;;;;;;;;;;;;;;;5092732;28;2146;-43
2023/02/19 09:42:16;;;;;;;;;;;;;;;;;;5077005;28;2084;-41
2023/02/19 09:44:47;;;;;;;;;;;;;;;;;;5084957;28;1892;-40
2023/02/19 09:47:19;;;;;;;;;;;;;;;;;;5084608;28;2124;-42
2023/02/19 09:49:51;;;;;;;;;;;;;;;;;;5071807;28;1983;-43
2023/02/19 09:52:36;;;;;;;;;;;;;;;;;;5072146;28;1505;-41
2023/02/19 09:55:12;;;;;;;;;;;;;;;;;;5071925;28;2038;-47
2023/02/19 09:57:41;;;;;;;;;;;;;;;;;;5072019;28;2019;-42
2023/02/19 10:00:09;;;;;;;;;;;;;;;;;;5072627;28;1458;-42
2023/02/19 10:02:37;;;;;;;;;;;;;;;;;;5071895;28;1770;-39
2023/02/19 10:05:12;;;;;;;;;;;;;;;;;;5078574;28;2223;-40
2023/02/19 10:07:42;;;;;;;;;;;;;;;;;;5092071;28;1513;-43
2023/02/19 10:10:13;;;;;;;;;;;;;;;;;;5092044;28;1906;-48
2023/02/19 10:12:45;;;;;;;;;;;;;;;;;;5091919;28;1905;-43
2023/02/19 10:15:20;;;;;;;;;;;;;;;;;;5073640;28;1684;-43
2023/02/19 10:17:47;;;;;;;;;;;;;;;;;;5071631;28;1748;-41
2023/02/19 10:20:17;;;;;;;;;;;;;;;;;;5071476;28;1866;-38
2023/02/19 10:22:45;;;;;;;;;;;;;;;;;;5055483;28;2326;-42
2023/02/19 10:25:14;;;;;;;;;;;;;;;;;;5091521;28;1631;-42
2023/02/19 10:27:42;;;;;;;;;;;;;;;;;;5089849;28;1811;-42
2023/02/19 10:30:17;;;;;;;;;;;;;;;;;;5091357;28;2006;-41
2023/02/19 10:33:04;;;;;;;;;;;;;;;;;;5073163;28;1667;-37
2023/02/19 10:35:38;;;;;;;;;;;;;;;;;;5090669;28;1422;-42
2023/02/19 10:38:07;;;;;;;;;;;;;;;;;;5090999;28;1539;-41
2023/02/19 10:40:43;;;;;;;;;;;;;;;;;;5072652;28;1308;-43
2023/02/19 10:43:26;;;;;;;;;;;;;;;;;;5091170;28;1818;-41
2023/02/19 10:45:54;;;;;;;;;;;;;;;;;;5090812;28;1748;-40
2023/02/19 10:48:29;;;;;;;;;;;;;;;;;;5090645;28;2007;-43
2023/02/19 10:51:08;;;;;;;;;;;;;;;;;;5072906;28;2020;-41
2023/02/19 10:53:38;;;;;;;;;;;;;;;;;;5091083;28;1615;-41
2023/02/19 10:56:07;;;;;;;;;;;;;;;;;;5091466;28;2161;-43
2023/02/19 10:58:36;;;;;;;;;;;;;;;;;;5090846;28;2296;-41
2023/02/19 11:01:11;;;;;;;;;;;;;;;;;;5091179;28;1362;-43
2023/02/19 11:03:38;;;;;;;;;;;;;;;;;;5090517;28;2319;-44
2023/02/19 11:06:07;;;;;;;;;;;;;;;;;;5075762;28;1617;-38
2023/02/19 11:08:38;;;;;;;;;;;;;;;;;;5070817;28;1967;-39
2023/02/19 11:11:05;;;;;;;;;;;;;;;;;;5075693;28;1734;-42
2023/02/19 11:13:36;;;;;;;;;;;;;;;;;;5090734;28;1879;-40
2023/02/19 11:16:04;;;;;;;;;;;;;;;;;;5090639;28;1933;-40
2023/02/19 11:18:35;;;;;;;;;;;;;;;;;;5086937;28;1809;-38
2023/02/19 11:21:03;;;;;;;;;;;;;;;;;;5070536;28;1601;-40
2023/02/19 11:23:33;;;;;;;;;;;;;;;;;;5070017;28;2184;-41
2023/02/19 11:26:01;;;;;;;;;;;;;;;;;;5070382;28;1962;-41
2023/02/19 11:28:31;;;;;;;;;;;;;;;;;;5070502;28;1967;-39
2023/02/19 11:31:18;;;;;;;;;;;;;;;;;;5070322;28;1776;-40
2023/02/19 11:34:01;;;;;;;;;;;;;;;;;;5065734;28;1813;-39
2023/02/19 11:36:32;;;;;;;;;;;;;;;;;;5074349;28;2091;-41
2023/02/19 11:39:23;;;;;;;;;;;;;;;;;;5056334;28;1726;-39
2023/02/19 11:41:59;;;;;;;;;;;;;;;;;;5069576;28;1891;-43
2023/02/19 11:44:32;;;;;;;;;;;;;;;;;;5073992;28;1804;-39
2023/02/19 11:47:00;;;;;;;;;;;;;;;;;;5074407;28;1722;-42
2023/02/19 11:49:30;;;;;;;;;;;;;;;;;;5074227;28;1925;-43
2023/02/19 11:51:57;;;;;;;;;;;;;;;;;;5073234;28;1693;-43
2023/02/19 11:54:43;;;;;;;;;;;;;;;;;;5074153;28;2130;-42
2023/02/19 11:57:26;;;;;;;;;;;;;;;;;;5073703;28;1626;-43
2023/02/19 12:00:19;;;;;;;;;;;;;;;;;;5073989;28;2120;-46
2023/02/19 12:02:49;;;;;;;;;;;;;;;;;;5071791;28;2025;-42
2023/02/19 12:05:16;;;;;;;;;;;;;;;;;;5081784;28;1628;-42
2023/02/19 12:08:02;;;;;;;;;;;;;;;;;;5094156;28;2140;-42
2023/02/19 12:10:32;;;;;;;;;;;;;;;;;;5094377;28;1918;-43
2023/02/19 12:13:14;;;;;;;;;;;;;;;;;;5094005;28;1712;-40
2023/02/19 12:16:04;;;;;;;;;;;;;;;;;;5073941;28;1470;-45
2023/02/19 12:19:01;;;;;;;;;;;;;;;;;;5073182;28;1537;-42
2023/02/19 12:21:28;;;;;;;;;;;;;;;;;;5064518;28;1619;-44
2023/02/19 12:24:01;;;;;;;;;;;;;;;;;;5073027;28;1805;-41
2023/02/19 12:27:04;;;;;;;;;;;;;;;;;;5055724;28;1899;-44
2023/02/19 12:29:47;;;;;;;;;;;;;;;;;;5030944;28;1974;-41
2023/02/19 12:32:30;;;;;;;;;;;;;;;;;;5069251;28;1774;-43
2023/02/19 12:35:16;;;;;;;;;;;;;;;;;;5072694;28;1960;-41
2023/02/19 12:37:43;;;;;;;;;;;;;;;;;;5083833;28;1755;-41
2023/02/19 12:40:19;;;;;;;;;;;;;;;;;;5093370;28;2184;-42
2023/02/19 12:42:46;;;;;;;;;;;;;;;;;;5093200;28;1917;-39
2023/02/19 12:45:19;;;;;;;;;;;;;;;;;;5092313;28;1803;-40
2023/02/19 12:48:06;;;;;;;;;;;;;;;;;;5093379;28;1983;-41
2023/02/19 12:50:34;;;;;;;;;;;;;;;;;;5092214;28;1915;-44
2023/02/19 12:53:06;;;;;;;;;;;;;;;;;;5093294;28;1699;-42
2023/02/19 12:55:42;;;;;;;;;;;;;;;;;;5093010;28;1926;-41
2023/02/19 12:58:27;;;;;;;;;;;;;;;;;;5093619;28;1985;-45
2023/02/19 13:00:58;;;;;;;;;;;;;;;;;;5092853;28;1550;-40
2023/02/19 13:03:38;;;;;;;;;;;;;;;;;;5093234;28;1686;-39
2023/02/19 13:06:09;;;;;;;;;;;;;;;;;;5077661;28;1759;-43
2023/02/19 13:08:43;;;;;;;;;;;;;;;;;;5072890;28;1979;-41
2023/02/19 13:11:32;;;;;;;;;;;;;;;;;;5072838;28;1853;-44
2023/02/19 13:14:04;;;;;;;;;;;;;;;;;;5055010;28;1709;-42
2023/02/19 13:16:33;;;;;;;;;;;;;;;;;;5054957;28;2021;-42
2023/02/19 13:19:02;;;;;;;;;;;;;;;;;;5072684;28;1619;-39
2023/02/19 13:24:27;;;;;;;;;;;;;;;;;;5072495;28;2151;-41
2023/02/19 13:27:13;;;;;;;;;;;;;;;;;;5072474;28;1820;-43
2023/02/19 13:29:43;;;;;;;;;;;;;;;;;;5072601;28;1976;-41
2023/02/19 13:32:28;;;;;;;;;;;;;;;;;;5054724;28;1637;-40
2023/02/19 13:35:14;;;;;;;;;;;;;;;;;;5071808;28;1568;-42
2023/02/19 13:37:42;;;;;;;;;;;;;;;;;;5072521;28;1765;-40
2023/02/19 13:40:41;;;;;;;;;;;;;;;;;;5072512;28;2071;-40
2023/02/19 13:43:29;;;;;;;;;;;;;;;;;;5046958;28;2048;-42
2023/02/19 13:45:58;;;;;;;;;;;;;;;;;;5072218;28;1658;-43
2023/02/19 13:48:28;;;;;;;;;;;;;;;;;;5071597;28;2003;-42
2023/02/19 13:51:14;;;;;;;;;;;;;;;;;;5070612;28;1912;-45
2023/02/19 13:53:42;;;;;;;;;;;;;;;;;;5070808;28;1922;-41
2023/02/19 13:56:27;;;;;;;;;;;;;;;;;;5071180;28;1460;-48
2023/02/19 13:59:00;;;;;;;;;;;;;;;;;;5071139;28;2209;-45
2023/02/19 14:01:46;;;;;;;;;;;;;;;;;;5070789;28;2029;-44
2023/02/19 14:04:32;;;;;;;;;;;;;;;;;;5071062;28;1783;-48
2023/02/19 14:07:02;;;;;;;;;;;;;;;;;;5070781;28;1890;-42
2023/02/19 14:09:35;;;;;;;;;;;;;;;;;;5070651;28;1968;-49
2023/02/19 14:12:06;;;;;;;;;;;;;;;;;;5070896;28;1710;-41
2023/02/19 14:14:38;;;;;;;;;;;;;;;;;;5070324;28;1584;-43
2023/02/19 14:17:08;;;;;;;;;;;;;;;;;;5070704;28;2221;-42
2023/02/19 14:19:41;;;;;;;;;;;;;;;;;;5070100;28;1291;-41
2023/02/19 14:22:27;;;;;;;;;;;;;;;;;;5070553;28;2006;-41
2023/02/19 14:24:55;;;;;;;;;;;;;;;;;;5070283;28;1431;-41
2023/02/19 14:27:24;;;;;;;;;;;;;;;;;;5069836;28;1786;-41
2023/02/19 14:29:51;;;;;;;;;;;;;;;;;;5070349;28;2319;-46
2023/02/19 14:32:19;;;;;;;;;;;;;;;;;;5060423;28;1792;-43
2023/02/19 14:34:46;;;;;;;;;;;;;;;;;;5070009;28;1570;-45
2023/02/19 14:37:18;;;;;;;;;;;;;;;;;;5070457;28;1294;-44
2023/02/19 14:39:46;;;;;;;;;;;;;;;;;;5070123;28;1760;-46
2023/02/19 14:42:21;;;;;;;;;;;;;;;;;;5069885;28;1827;-44
2023/02/19 14:44:48;;;;;;;;;;;;;;;;;;5069926;28;1874;-51
2023/02/19 14:47:17;;;;;;;;;;;;;;;;;;5070671;28;1782;-42
2023/02/19 14:49:59;;;;;;;;;;;;;;;;;;5070363;28;1966;-44
2023/02/19 14:52:29;;;;;;;;;;;;;;;;;;5069056;28;1600;-41
2023/02/19 14:54:58;;;;;;;;;;;;;;;;;;5070730;28;1607;-42
2023/02/19 14:57:31;;;;;;;;;;;;;;;;;;5070501;28;2049;-42
2023/02/19 14:59:59;;;;;;;;;;;;;;;;;;5069885;28;2154;-44
2023/02/19 15:02:28;;;;;;;;;;;;;;;;;;5070172;28;1838;-49
2023/02/19 15:04:55;;;;;;;;;;;;;;;;;;5070059;28;1914;-45
2023/02/19 15:07:24;;;;;;;;;;;;;;;;;;5069736;28;1928;-48
2023/02/19 15:09:53;;;;;;;;;;;;;;;;;;5085726;28;1903;-46
2023/02/19 15:12:25;;;;;;;;;;;;;;;;;;5070267;28;1270;-46
2023/02/19 15:14:54;;;;;;;;;;;;;;;;;;5069845;28;2001;-43
2023/02/19 15:17:26;;;;;;;;;;;;;;;;;;5070573;28;1931;-44
2023/02/19 15:19:54;;;;;;;;;;;;;;;;;;5052541;28;2006;-47
2023/02/19 15:22:23;;;;;;;;;;;;;;;;;;5078024;28;2021;-48
2023/02/19 15:24:50;;;;;;;;;;;;;;;;;;5090365;28;1559;-46
2023/02/19 15:27:19;;;;;;;;;;;;;;;;;;5078187;28;1564;-47
2023/02/19 15:29:47;;;;;;;;;;;;;;;;;;5069329;28;2039;-41
2023/02/19 15:32:18;;;;;;;;;;;;;;;;;;5069623;28;2098;-47
2023/02/19 15:34:59;;;;;;;;;;;;;;;;;;5070060;28;2058;-42
2023/02/19 15:37:27;;;;;;;;;;;;;;;;;;5070024;28;1889;-42
2023/02/19 15:39:55;;;;;;;;;;;;;;;;;;5069752;28;1507;-45
2023/02/19 15:42:28;;;;;;;;;;;;;;;;;;5069998;28;2080;-50
2023/02/19 15:44:56;;;;;;;;;;;;;;;;;;5069533;28;1884;-47
2023/02/19 15:47:40;;;;;;;;;;;;;;;;;;5069588;28;2171;-48
2023/02/19 15:50:08;;;;;;;;;;;;;;;;;;5070091;28;1902;-41
2023/02/19 15:52:41;;;;;;;;;;;;;;;;;;5069075;28;1948;-44
2023/02/19 15:55:30;;;;;;;;;;;;;;;;;;5070093;28;1784;-45
2023/02/19 15:58:03;;;;;;;;;;;;;;;;;;5069484;28;1705;-48
2023/02/19 16:00:46;;;;;;;;;;;;;;;;;;5051495;28;1883;-47
2023/02/19 16:03:17;;;;;;;;;;;;;;;;;;5069856;28;1592;-46
2023/02/19 16:05:45;;;;;;;;;;;;;;;;;;5081592;28;1886;-45
2023/02/19 16:08:17;;;;;;;;;;;;;;;;;;5089722;28;2117;-45
2023/02/19 16:10:51;;;;;;;;;;;;;;;;;;5089939;28;1906;-41
2023/02/19 16:13:22;;;;;;;;;;;;;;;;;;5089761;28;1889;-41
2023/02/19 16:16:13;;;;;;;;;;;;;;;;;;5090170;28;1861;-44
2023/02/19 16:18:48;;;;;;;;;;;;;;;;;;5082651;28;2046;-42
2023/02/19 16:21:19;;;;;;;;;;;;;;;;;;5093284;28;1953;-42
2023/02/19 16:23:47;;;;;;;;;;;;;;;;;;5075294;28;2122;-48
2023/02/19 16:26:14;;;;;;;;;;;;;;;;;;5093616;28;1370;-45
2023/02/19 16:28:41;;;;;;;;;;;;;;;;;;5093722;28;2085;-40
2023/02/19 16:31:10;;;;;;;;;;;;;;;;;;5093157;28;1975;-45
2023/02/19 16:33:46;;;;;;;;;;;;;;;;;;5093035;28;2043;-48
2023/02/19 16:36:15;;;;;;;;;;;;;;;;;;5092796;28;2108;-44
2023/02/19 16:39:18;;;;;;;;;;;;;;;;;;5093538;28;2154;-43
2023/02/19 16:41:45;;;;;;;;;;;;;;;;;;5030335;28;2042;-44
2023/02/19 16:44:29;;;;;;;;;;;;;;;;;;5075090;28;2128;-44
2023/02/19 16:46:59;;;;;;;;;;;;;;;;;;5072707;28;1949;-44
2023/02/19 16:49:26;;;;;;;;;;;;;;;;;;5072519;28;1163;-44
2023/02/19 16:51:54;;;;;;;;;;;;;;;;;;5072305;28;1971;-48
2023/02/19 16:54:21;;;;;;;;;;;;;;;;;;5071974;28;1935;-41
2023/02/19 16:56:48;;;;;;;;;;;;;;;;;;5072902;28;1586;-48
2023/02/19 16:59:15;;;;;;;;;;;;;;;;;;5071965;28;1628;-46
2023/02/19 17:01:43;;;;;;;;;;;;;;;;;;5072981;28;1882;-47
2023/02/19 17:04:11;;;;;;;;;;;;;;;;;;5055041;28;1899;-44
2023/02/19 17:06:38;;;;;;;;;;;;;;;;;;5092681;28;1905;-44
2023/02/19 17:09:07;;;;;;;;;;;;;;;;;;5092697;28;2158;-44
2023/02/19 17:11:34;;;;;;;;;;;;;;;;;;5092423;28;1972;-43
2023/02/19 17:14:02;;;;;;;;;;;;;;;;;;5092444;28;1803;-44
2023/02/19 17:16:38;;;;;;;;;;;;;;;;;;5092392;28;1362;-45
2023/02/19 17:19:14;;;;;;;;;;;;;;;;;;5092135;28;1927;-48
2023/02/19 17:21:43;;;;;;;;;;;;;;;;;;5092751;28;1547;-41
2023/02/19 17:24:10;;;;;;;;;;;;;;;;;;5092108;28;2200;-49
2023/02/19 17:26:37;;;;;;;;;;;;;;;;;;5092560;28;1792;-46
2023/02/19 17:29:05;;;;;;;;;;;;;;;;;;5092618;28;2248;-43
2023/02/19 17:31:33;;;;;;;;;;;;;;;;;;5073268;28;1964;-46
2023/02/19 17:34:00;;;;;;;;;;;;;;;;;;5091794;28;1920;-46
2023/02/19 17:36:29;;;;;;;;;;;;;;;;;;5092742;28;1842;-44
2023/02/19 17:38:57;;;;;;;;;;;;;;;;;;5091528;28;2051;-46
2023/02/19 17:41:24;;;;;;;;;;;;;;;;;;5092491;28;1831;-44
2023/02/19 17:43:52;;;;;;;;;;;;;;;;;;5091483;28;1677;-43
2023/02/19 17:46:21;;;;;;;;;;;;;;;;;;5091608;28;1972;-48
2023/02/19 17:48:48;;;;;;;;;;;;;;;;;;5091593;28;1876;-44
2023/02/19 17:51:15;;;;;;;;;;;;;;;;;;5091629;28;2085;-47
2023/02/19 17:53:43;;;;;;;;;;;;;;;;;;5073472;28;1700;-45
2023/02/19 17:56:14;;;;;;;;;;;;;;;;;;5091938;28;1740;-44
2023/02/19 17:58:41;;;;;;;;;;;;;;;;;;5092041;28;2155;-43
2023/02/19 18:01:08;;;;;;;;;;;;;;;;;;5091848;28;2010;-42